Aviation Digital Data Service (ADDS)

Output produced by TAFs form (1923 UTC 24 July 2014)
found at http://www.aviationweather.gov/adds/tafs/
 
KMRB 241736Z 2418/2518 35007KT P6SM SCT040 
     FM251500 VRB03KT P6SM FEW045 FEW130